Gloucester Point, Virginia
Current Conditions -  °F | °C
As of 3:54 PM on Friday 31 Oct 2014 (Local Time) from KPHF Reporting Station
Overcast Overcast  
Wind Chill: 59°   Ceiling: 5500
Heat Index: 59°   Visibility: 10mi
Dew Point: 41°   Wind: 10mph
Humidity: 51%   Direction: 60°ENE
Pressure: 29.84"   Gusts: NA
Location:  37.26°N, 76.49°W
Report Text: KPHF 311954Z AUTO 06009KT 10SM OVC055 15/05 A2984 RMK AO2 SLP103 T01500050 TSNO
Loading
Personal Weather Stations






























Interactive Weather Map
Tropical Storm Tracking
New forecast layout! Learn more

10-Day Weather Forecast

Advertisements
Track Severe Weather on mobile